Time;durP1;ratioP1;P1;durP2;ratioP2;P2;SDS_P1;SDS_P2;PMS_P1;PMS_P2;Temp;Humidity;BMP_temperature;BMP_pressure;BME280_temperature;BME280_humidity;BME280_pressure;Samples;Min_cycle;Max_cycle;Signal;HPM_P1;HPM_P2
2022/12/11 00:02:07;;;;;;;19.77;12.40;;;1.40;99.90;;;;;;10258305;29;20194;-84
2022/12/11 00:07:10;;;;;;;18.37;12.03;;;0.90;99.90;;;;;;10257311;29;20246;-84
2022/12/11 00:12:12;;;;;;;18.03;11.50;;;0.90;99.90;;;;;;10257701;28;20548;-84
2022/12/11 00:17:15;;;;;;;19.27;12.90;;;0.90;99.90;;;;;;10257802;29;20225;-84
2022/12/11 00:22:17;;;;;;;20.23;12.23;;;1.30;99.90;;;;;;10255934;29;20234;-84
2022/12/11 00:27:20;;;;;;;20.83;14.23;;;1.30;99.90;;;;;;10257536;29;20253;-84
2022/12/11 00:32:22;;;;;;;23.10;15.90;;;1.20;99.90;;;;;;10256342;29;20249;-84
2022/12/11 00:37:24;;;;;;;20.60;12.10;;;1.80;99.90;;;;;;10257023;29;20200;-84
2022/12/11 00:42:27;;;;;;;16.37;12.17;;;1.60;99.90;;;;;;10256508;29;20235;-84
2022/12/11 00:47:29;;;;;;;18.93;13.07;;;1.40;99.90;;;;;;10256847;29;20195;-84
2022/12/11 00:52:32;;;;;;;26.07;15.27;;;1.30;99.90;;;;;;10256415;29;20203;-84
2022/12/11 00:57:34;;;;;;;22.43;14.17;;;1.00;99.90;;;;;;10256205;29;20549;-83
2022/12/11 01:02:37;;;;;;;21.33;13.43;;;1.10;99.90;;;;;;10256059;29;20265;-84
2022/12/11 01:07:39;;;;;;;19.10;11.80;;;0.80;99.90;;;;;;10256144;29;20560;-84
2022/12/11 01:12:42;;;;;;;21.57;14.47;;;1.00;99.90;;;;;;10254270;29;20210;-84
2022/12/11 01:17:44;;;;;;;14.33;8.93;;;1.40;99.90;;;;;;10254501;29;20299;-84
2022/12/11 01:22:47;;;;;;;23.33;14.07;;;1.50;99.90;;;;;;10254693;28;20217;-84
2022/12/11 01:27:51;;;;;;;20.43;13.57;;;1.60;99.90;;;;;;10255094;29;20242;-84
2022/12/11 01:32:53;;;;;;;18.83;12.97;;;1.50;99.90;;;;;;10254901;29;20203;-84
2022/12/11 01:37:56;;;;;;;18.63;13.40;;;1.60;99.90;;;;;;10253068;29;20672;-84
2022/12/11 01:42:58;;;;;;;13.47;9.33;;;1.80;99.90;;;;;;10252705;29;20234;-84
2022/12/11 01:48:28;;;;;;;18.57;11.60;;;1.90;99.90;;;;;;10254443;29;20272;-84
2022/12/11 01:53:35;;;;;;;21.37;13.60;;;2.40;99.90;;;;;;10253074;29;20249;-83
2022/12/11 01:58:43;;;;;;;17.43;11.23;;;1.20;99.90;;;;;;10237385;29;20242;-83
2022/12/11 02:03:45;;;;;;;15.70;10.87;;;1.20;99.90;;;;;;10253886;29;20214;-83
2022/12/11 02:08:47;;;;;;;14.10;9.90;;;2.00;99.90;;;;;;10236568;29;20240;-83
2022/12/11 02:13:56;;;;;;;18.70;11.63;;;1.70;99.90;;;;;;10253404;28;20203;-83
2022/12/11 02:19:40;;;;;;;12.27;8.93;;;1.50;99.90;;;;;;10252274;29;20253;-84
2022/12/11 02:25:28;;;;;;;13.50;10.57;;;1.30;99.90;;;;;;10267267;28;20638;-83
2022/12/11 02:30:33;;;;;;;17.27;10.70;;;0.80;99.90;;;;;;10248195;29;20216;-83
2022/12/11 02:35:42;;;;;;;16.97;11.43;;;1.20;99.90;;;;;;10247402;29;20319;-83
2022/12/11 02:40:49;;;;;;;16.00;11.53;;;0.90;99.90;;;;;;10231934;29;20686;-84
2022/12/11 02:45:53;;;;;;;15.50;10.50;;;1.00;99.90;;;;;;10231413;29;20232;-83
2022/12/11 02:50:57;;;;;;;17.53;11.50;;;1.00;99.90;;;;;;10231823;29;20207;-84
2022/12/11 02:56:29;;;;;;;13.20;7.77;;;1.00;99.90;;;;;;10215991;29;20285;-83
2022/12/11 03:01:31;;;;;;;13.90;10.17;;;1.70;99.90;;;;;;10246631;29;20556;-83
2022/12/11 03:06:43;;;;;;;17.53;10.50;;;1.50;99.90;;;;;;10250335;29;20258;-83
2022/12/11 03:11:45;;;;;;;15.33;9.87;;;1.10;99.90;;;;;;10251630;29;20588;-83
2022/12/11 03:16:59;;;;;;;15.20;10.33;;;0.70;99.90;;;;;;10251681;29;20255;-83
2022/12/11 03:22:09;;;;;;;9.33;6.50;;;1.20;99.90;;;;;;10251672;29;20195;-83
2022/12/11 03:27:37;;;;;;;14.10;9.57;;;1.40;99.90;;;;;;10251291;29;20247;-84
2022/12/11 03:32:53;;;;;;;14.83;9.07;;;0.80;99.90;;;;;;10251128;29;20570;-83
2022/12/11 03:37:59;;;;;;;11.80;8.73;;;0.70;99.90;;;;;;10249896;29;20203;-83
2022/12/11 03:43:03;;;;;;;11.07;7.53;;;1.00;99.90;;;;;;10250804;28;20236;-83
2022/12/11 03:48:09;;;;;;;14.37;9.17;;;1.50;99.90;;;;;;10272736;28;20640;-83
2022/12/11 03:53:11;;;;;;;11.67;8.93;;;1.00;99.90;;;;;;10257159;29;20222;-83
2022/12/11 03:58:14;;;;;;;13.93;9.80;;;1.00;99.90;;;;;;10257961;29;20201;-83
2022/12/11 04:03:16;;;;;;;12.83;10.20;;;1.20;99.90;;;;;;10257889;29;20200;-84
2022/12/11 04:08:20;;;;;;;11.23;8.17;;;1.40;99.90;;;;;;10257648;29;20193;-83
2022/12/11 04:13:22;;;;;;;12.30;9.03;;;1.10;99.90;;;;;;10271827;28;20685;-83
2022/12/11 04:29:07;;;;;;;9.10;7.10;;;0.40;99.90;;;;;;10256904;29;20198;-83
2022/12/11 04:34:09;;;;;;;10.03;7.17;;;0.50;99.90;;;;;;10256937;29;20203;-83
2022/12/11 04:39:12;;;;;;;12.47;9.10;;;0.40;99.90;;;;;;10256316;29;20719;-83
2022/12/11 04:44:14;;;;;;;11.03;6.90;;;0.10;99.90;;;;;;10256049;29;20238;-83
2022/12/11 04:49:16;;;;;;;13.23;8.57;;;0.70;99.90;;;;;;10255147;29;20194;-83
2022/12/11 04:54:19;;;;;;;10.80;7.10;;;1.20;99.90;;;;;;10270766;28;20210;-83
2022/12/11 04:59:21;;;;;;;8.50;7.60;;;1.10;99.90;;;;;;10253902;29;20576;-83
2022/12/11 05:04:24;;;;;;;8.97;6.93;;;0.50;99.90;;;;;;10255730;29;20218;-83
2022/12/11 05:09:27;;;;;;;10.13;8.37;;;0.10;99.90;;;;;;10255425;29;20265;-83
2022/12/11 05:14:31;;;;;;;11.50;7.53;;;-0.10;99.90;;;;;;10255055;29;20225;-83
2022/12/11 05:19:33;;;;;;;11.10;6.83;;;0.00;99.90;;;;;;10255084;29;20610;-83
2022/12/11 05:24:36;;;;;;;7.87;6.50;;;0.50;99.90;;;;;;10254856;29;20226;-83
2022/12/11 05:29:38;;;;;;;10.33;7.53;;;0.90;99.90;;;;;;10254531;29;20203;-83
2022/12/11 05:34:40;;;;;;;10.50;7.57;;;1.20;99.90;;;;;;10255042;29;20233;-83
2022/12/11 05:39:43;;;;;;;9.97;7.37;;;0.90;99.90;;;;;;10268448;28;20230;-83
2022/12/11 05:44:45;;;;;;;11.00;8.13;;;0.50;99.90;;;;;;10252704;29;20211;-83
2022/12/11 05:49:48;;;;;;;13.40;9.13;;;1.10;99.90;;;;;;10268248;28;20201;-83
2022/12/11 05:54:50;;;;;;;13.57;8.27;;;0.80;99.90;;;;;;10253489;29;20203;-83
2022/12/11 05:59:53;;;;;;;11.57;8.37;;;1.10;99.90;;;;;;10252139;29;20209;-83
2022/12/11 06:04:55;;;;;;;9.50;7.50;;;0.90;99.90;;;;;;10253318;29;20216;-83
2022/12/11 06:09:57;;;;;;;11.13;8.47;;;1.10;99.90;;;;;;10267633;28;20553;-83
2022/12/11 06:15:00;;;;;;;13.93;10.37;;;0.90;99.90;;;;;;10253448;29;20204;-83
2022/12/11 06:20:02;;;;;;;11.23;9.13;;;1.10;99.90;;;;;;10252069;29;20691;-83
2022/12/11 06:25:05;;;;;;;12.60;10.03;;;1.50;99.90;;;;;;10253210;29;20252;-83
2022/12/11 06:30:08;;;;;;;9.43;7.63;;;1.50;99.90;;;;;;10252053;29;20195;-83
2022/12/11 06:35:11;;;;;;;11.90;9.40;;;1.40;99.90;;;;;;10252992;29;20205;-83
2022/12/11 06:40:14;;;;;;;12.57;9.30;;;1.20;99.90;;;;;;10267790;28;20234;-83
2022/12/11 06:45:17;;;;;;;13.37;10.23;;;1.30;99.90;;;;;;10252793;29;20264;-83
2022/12/11 06:50:19;;;;;;;12.20;8.93;;;1.80;99.90;;;;;;10236137;29;20198;-83
2022/12/11 06:55:22;;;;;;;15.90;11.33;;;1.40;99.90;;;;;;10252512;29;20203;-83
2022/12/11 07:00:24;;;;;;;22.13;14.83;;;1.70;99.90;;;;;;10252176;29;20212;-83
2022/12/11 07:05:27;;;;;;;14.73;11.30;;;1.30;99.90;;;;;;10252366;29;20281;-83
2022/12/11 07:10:29;;;;;;;17.10;13.43;;;0.90;99.90;;;;;;10251842;29;20191;-83
2022/12/11 07:15:32;;;;;;;15.10;10.60;;;0.60;99.90;;;;;;10252099;29;20238;-83
2022/12/11 07:20:41;;;;;;;16.30;12.80;;;0.60;99.90;;;;;;10255092;28;20235;-83
2022/12/11 07:25:43;;;;;;;20.20;14.50;;;0.70;99.90;;;;;;10259831;29;20222;-83
2022/12/11 07:30:46;;;;;;;20.87;14.67;;;0.00;99.90;;;;;;10259606;29;20226;-83
2022/12/11 07:35:48;;;;;;;18.47;11.33;;;0.20;99.90;;;;;;10258320;29;20253;-83
2022/12/11 07:40:51;;;;;;;18.27;12.33;;;0.30;99.90;;;;;;10259100;29;20233;-82
2022/12/11 07:45:54;;;;;;;19.87;12.93;;;0.00;99.90;;;;;;10259005;29;20238;-83
2022/12/11 07:51:07;;;;;;;16.03;12.00;;;;;;;;;;10257297;29;20672;-83
2022/12/11 07:56:09;;;;;;;16.47;11.83;;;-0.60;99.90;;;;;;10257621;29;20203;-83
2022/12/11 08:01:14;;;;;;;15.67;11.57;;;-0.20;99.90;;;;;;10257319;29;20206;-83
2022/12/11 08:06:20;;;;;;;16.10;10.73;;;0.00;99.90;;;;;;10258339;29;20253;-83
2022/12/11 08:11:23;;;;;;;16.27;10.87;;;-0.30;99.90;;;;;;10258170;29;20194;-83
2022/12/11 08:16:26;;;;;;;13.80;9.80;;;-0.40;99.90;;;;;;10258040;29;20206;-83
2022/12/11 08:21:28;;;;;;;15.50;11.87;;;-0.70;99.90;;;;;;10257888;29;20202;-83
2022/12/11 08:26:31;;;;;;;19.63;13.03;;;;;;;;;;10257646;29;20222;-83
2022/12/11 08:31:34;;;;;;;16.87;12.07;;;-1.00;99.90;;;;;;10256100;28;20199;-83
2022/12/11 08:36:36;;;;;;;17.87;12.50;;;-0.90;99.90;;;;;;10257301;29;20226;-83
2022/12/11 08:41:38;;;;;;;18.43;12.33;;;-1.00;99.90;;;;;;10255793;29;20238;-83
2022/12/11 08:46:41;;;;;;;19.83;12.30;;;-1.20;99.90;;;;;;10256894;29;20214;-83
2022/12/11 08:51:43;;;;;;;15.67;11.27;;;-0.10;99.90;;;;;;10255333;29;20585;-83
2022/12/11 08:56:45;;;;;;;21.77;13.90;;;-0.40;99.90;;;;;;10256543;29;20249;-83
2022/12/11 09:01:48;;;;;;;23.23;14.57;;;-0.70;99.90;;;;;;10256132;29;20202;-83
2022/12/11 09:06:50;;;;;;;20.73;14.33;;;-0.70;99.90;;;;;;10255994;29;20222;-83
2022/12/11 09:11:53;;;;;;;26.17;17.13;;;-0.40;99.90;;;;;;10255805;29;20667;-83
2022/12/11 09:16:55;;;;;;;22.13;14.97;;;-0.80;99.90;;;;;;10255635;29;20265;-83
2022/12/11 09:21:58;;;;;;;23.70;14.23;;;-0.60;99.90;;;;;;10254206;29;20742;-83
2022/12/11 09:27:00;;;;;;;19.23;12.47;;;-0.20;99.90;;;;;;10255119;29;20226;-83
2022/12/11 09:32:03;;;;;;;20.37;12.73;;;0.40;99.90;;;;;;10255284;29;20227;-83
2022/12/11 09:37:05;;;;;;;16.60;10.27;;;0.40;99.90;;;;;;10254927;29;20203;-83
2022/12/11 09:42:11;;;;;;;12.30;8.50;;;-0.10;99.90;;;;;;10254097;28;20285;-83
2022/12/11 09:47:19;;;;;;;17.70;11.73;;;0.40;99.90;;;;;;10254511;29;20269;-83
2022/12/11 09:52:50;;;;;;;12.40;8.47;;;0.70;99.90;;;;;;10254392;29;20203;-83
2022/12/11 09:58:19;;;;;;;14.27;10.93;;;0.50;99.90;;;;;;10254117;29;20287;-85
2022/12/11 10:03:47;;;;;;;18.03;10.03;;;-0.50;99.90;;;;;;10252162;29;20615;-83
2022/12/11 10:09:23;;;;;;;15.27;10.97;;;0.20;99.90;;;;;;10252630;29;20222;-83
2022/12/11 10:14:45;;;;;;;23.27;13.33;;;0.20;99.90;;;;;;10252288;29;20209;-83
2022/12/11 10:19:48;;;;;;;19.40;12.57;;;1.20;99.90;;;;;;10253473;29;20190;-83
2022/12/11 10:25:01;;;;;;;19.90;12.13;;;0.50;99.90;;;;;;10253326;29;20218;-83
2022/12/11 10:30:39;;;;;;;27.83;14.87;;;1.00;99.90;;;;;;10251897;29;20273;-83
2022/12/11 10:35:56;;;;;;;21.60;13.40;;;0.60;99.90;;;;;;10251760;29;20686;-83
2022/12/11 10:41:12;;;;;;;18.90;12.87;;;0.40;99.90;;;;;;10251873;29;20230;-83
2022/12/11 10:46:18;;;;;;;20.83;12.87;;;0.40;99.90;;;;;;10252905;29;20246;-83
2022/12/11 10:51:25;;;;;;;21.80;13.93;;;0.60;99.90;;;;;;10251421;29;20252;-83
2022/12/11 10:56:29;;;;;;;14.60;9.17;;;;;;;;;;10257076;28;20202;-83
2022/12/11 11:01:31;;;;;;;13.87;10.73;;;-0.20;99.90;;;;;;10259550;29;20202;-83
2022/12/11 11:06:35;;;;;;;15.20;10.50;;;-0.10;99.90;;;;;;10260520;29;20222;-83
2022/12/11 11:11:38;;;;;;;16.27;9.00;;;0.00;99.90;;;;;;10259443;29;20202;-83
2022/12/11 11:16:43;;;;;;;17.93;13.07;;;0.50;99.90;;;;;;10260166;29;20206;-83
2022/12/11 11:21:55;;;;;;;24.47;15.77;;;1.60;99.90;;;;;;10260161;29;20563;-83
2022/12/11 11:26:58;;;;;;;17.20;10.00;;;1.60;99.90;;;;;;10259887;29;20328;-83
2022/12/11 11:32:31;;;;;;;16.23;10.80;;;1.20;99.90;;;;;;10258430;29;20206;-83
2022/12/11 11:37:33;;;;;;;20.90;12.60;;;1.00;99.90;;;;;;10259505;29;20194;-83
2022/12/11 11:43:08;;;;;;;22.93;15.23;;;0.70;99.90;;;;;;10259068;29;20601;-83
2022/12/11 11:48:47;;;;;;;14.47;8.90;;;0.70;99.90;;;;;;10259034;29;20218;-83
2022/12/11 11:53:53;;;;;;;15.47;10.43;;;0.50;99.90;;;;;;10254675;29;20239;-83
2022/12/11 11:59:20;;;;;;;21.20;14.80;;;1.30;99.90;;;;;;10238337;29;20266;-83
2022/12/11 12:04:24;;;;;;;18.77;13.27;;;1.30;99.90;;;;;;10238063;28;20238;-83
2022/12/11 12:09:53;;;;;;;22.57;15.27;;;0.90;99.90;;;;;;10237833;29;20262;-83
2022/12/11 12:15:28;;;;;;;23.90;14.53;;;0.60;99.90;;;;;;10221907;29;20210;-83
2022/12/11 12:20:49;;;;;;;17.83;10.70;;;1.00;99.90;;;;;;10234355;29;20215;-83
2022/12/11 12:26:24;;;;;;;22.77;14.13;;;1.10;99.90;;;;;;10253559;29;20249;-83
2022/12/11 12:31:39;;;;;;;19.13;11.03;;;1.20;99.90;;;;;;10251623;29;20696;-83
2022/12/11 12:37:00;;;;;;;14.60;8.57;;;1.50;99.90;;;;;;10257557;29;20253;-83
2022/12/11 12:42:33;;;;;;;16.50;11.13;;;0.80;99.90;;;;;;10256972;29;20284;-83
2022/12/11 12:47:36;;;;;;;12.83;7.13;;;0.30;99.90;;;;;;10256844;29;20580;-83
2022/12/11 12:52:40;;;;;;;17.30;10.70;;;1.00;99.90;;;;;;10255820;28;20623;-83
2022/12/11 12:57:51;;;;;;;15.20;9.13;;;1.30;99.90;;;;;;10256402;29;20540;-83
2022/12/11 13:02:55;;;;;;;13.40;9.93;;;0.70;99.90;;;;;;10256323;29;20299;-83
2022/12/11 13:08:01;;;;;;;13.33;8.50;;;0.40;99.90;;;;;;10254481;29;20250;-83
2022/12/11 13:13:24;;;;;;;9.03;7.17;;;0.00;99.90;;;;;;10255858;29;20591;-83
2022/12/11 13:18:38;;;;;;;10.40;6.63;;;0.00;99.90;;;;;;10269402;28;20210;-83
2022/12/11 13:23:41;;;;;;;15.10;7.20;;;0.20;99.90;;;;;;10254407;29;20198;-83
2022/12/11 13:28:43;;;;;;;13.50;9.43;;;0.40;99.90;;;;;;10254037;29;20218;-83
2022/12/11 13:34:01;;;;;;;14.17;7.73;;;0.50;99.90;;;;;;10255055;29;20226;-83
2022/12/11 13:39:09;;;;;;;23.53;12.17;;;0.30;99.90;;;;;;10253787;28;20305;-83
2022/12/11 13:44:22;;;;;;;16.83;12.13;;;1.10;99.90;;;;;;10254527;29;20210;-83
2022/12/11 13:49:34;;;;;;;18.13;9.87;;;1.30;99.90;;;;;;10253456;29;20227;-83
2022/12/11 13:54:50;;;;;;;13.50;7.93;;;1.40;99.90;;;;;;10254781;28;20537;-83
2022/12/11 13:59:54;;;;;;;20.73;10.07;;;2.30;99.90;;;;;;10254169;29;20232;-83
2022/12/11 14:05:06;;;;;;;20.53;11.40;;;2.10;99.90;;;;;;10252627;29;20231;-84
2022/12/11 14:10:29;;;;;;;20.97;11.30;;;1.70;99.90;;;;;;10253949;29;20250;-84
2022/12/11 14:15:34;;;;;;;24.57;12.60;;;1.70;99.90;;;;;;10252539;29;20249;-84
2022/12/11 14:20:38;;;;;;;16.17;9.60;;;1.90;99.90;;;;;;10253569;28;20198;-84
2022/12/11 14:25:40;;;;;;;13.80;8.43;;;2.10;99.90;;;;;;10253483;29;20205;-84
2022/12/11 14:30:50;;;;;;;19.93;11.80;;;3.30;99.90;;;;;;10253183;28;20614;-84
2022/12/11 14:35:54;;;;;;;25.80;13.30;;;2.90;99.90;;;;;;10253168;29;20245;-84
2022/12/11 14:41:06;;;;;;;18.93;12.00;;;2.60;99.90;;;;;;10252854;29;20371;-84
2022/12/11 14:46:19;;;;;;;54.83;23.03;;;2.60;99.90;;;;;;10251424;29;20265;-84
2022/12/11 14:51:22;;;;;;;29.00;14.13;;;3.00;99.90;;;;;;10252977;29;20197;-84
2022/12/11 14:56:27;;;;;;;27.53;16.93;;;3.00;99.90;;;;;;10252633;29;20569;-84
2022/12/11 15:01:35;;;;;;;26.87;17.67;;;2.50;99.90;;;;;;10250841;29;20208;-83
2022/12/11 15:06:46;;;;;;;16.93;11.57;;;2.40;99.90;;;;;;10252476;29;20229;-84
2022/12/11 15:11:49;;;;;;;37.83;25.00;;;2.90;99.90;;;;;;10252447;29;20197;-84
2022/12/11 15:16:55;;;;;;;18.07;11.73;;;3.30;99.90;;;;;;10251024;29;20237;-84
2022/12/11 15:22:07;;;;;;;17.77;12.10;;;2.70;99.90;;;;;;10252210;29;20205;-84
2022/12/11 15:27:37;;;;;;;22.43;12.73;;;3.00;99.90;;;;;;10251011;29;20249;-83
2022/12/11 15:32:39;;;;;;;20.67;13.10;;;2.90;99.90;;;;;;10251061;29;20276;-84
2022/12/11 15:37:52;;;;;;;63.17;20.37;;;3.60;99.90;;;;;;10251426;29;20207;-83
2022/12/11 15:42:56;;;;;;;91.23;30.57;;;3.70;99.70;;;;;;9927303;28;10000214;-83
2022/12/11 15:47:58;;;;;;;56.50;26.83;;;3.60;99.90;;;;;;10299405;28;20285;-83
2022/12/11 15:53:00;;;;;;;43.67;21.67;;;2.60;99.90;;;;;;10283362;28;20316;-83
2022/12/11 15:58:12;;;;;;;40.87;22.50;;;2.40;99.90;;;;;;10290987;28;20290;-83
2022/12/11 16:03:17;;;;;;;89.77;29.00;;;1.90;99.90;;;;;;10292336;28;20237;-83
2022/12/11 16:08:22;;;;;;;71.07;32.57;;;2.00;99.90;;;;;;10292364;28;20247;-83
2022/12/11 16:13:24;;;;;;;74.80;28.00;;;2.00;99.90;;;;;;10293520;28;20258;-83
2022/12/11 16:18:27;;;;;;;93.03;35.43;;;2.00;99.90;;;;;;10292884;28;20237;-83
2022/12/11 16:23:29;;;;;;;51.87;25.53;;;2.00;99.90;;;;;;10292804;28;20200;-83
2022/12/11 16:28:32;;;;;;;61.20;19.23;;;1.80;99.90;;;;;;10288491;28;20260;-83
2022/12/11 16:33:35;;;;;;;31.40;17.90;;;1.40;99.90;;;;;;10292709;28;20217;-83
2022/12/11 16:38:37;;;;;;;48.73;21.50;;;1.50;99.90;;;;;;10291123;28;20227;-83
2022/12/11 16:43:40;;;;;;;56.43;20.17;;;1.60;99.90;;;;;;10290807;28;20220;-83
2022/12/11 16:48:43;;;;;;;33.70;17.27;;;1.40;99.90;;;;;;10292708;28;20341;-83
2022/12/11 16:53:46;;;;;;;28.30;17.50;;;1.40;99.90;;;;;;10289906;28;20228;-83
2022/12/11 16:58:48;;;;;;;42.87;22.50;;;1.30;99.90;;;;;;10289735;28;20223;-83
2022/12/11 17:03:51;;;;;;;35.10;20.70;;;0.80;99.90;;;;;;10291259;28;20675;-86
2022/12/11 17:08:54;;;;;;;25.87;15.07;;;1.10;99.90;;;;;;10273747;28;20661;-85
2022/12/11 17:13:58;;;;;;;39.23;18.40;;;1.20;99.90;;;;;;10288686;28;20604;-85
2022/12/11 17:19:02;;;;;;;22.07;14.27;;;1.10;99.90;;;;;;10289176;28;20829;-85
2022/12/11 17:24:05;;;;;;;34.07;19.00;;;1.20;99.90;;;;;;10288381;28;20635;-85
2022/12/11 17:29:10;;;;;;;35.33;17.23;;;0.80;99.90;;;;;;10289294;28;20259;-85
2022/12/11 17:34:14;;;;;;;26.27;13.20;;;1.00;99.90;;;;;;10279778;28;20667;-85
2022/12/11 17:39:17;;;;;;;32.20;17.27;;;1.20;99.90;;;;;;10276325;28;20329;-85
2022/12/11 17:44:20;;;;;;;34.10;20.90;;;1.60;99.90;;;;;;10288975;28;20313;-85
2022/12/11 17:49:22;;;;;;;181.00;93.20;;;1.30;99.90;;;;;;10287889;28;20896;-85
2022/12/11 17:54:25;;;;;;;124.77;54.30;;;1.00;99.90;;;;;;10286884;28;20255;-85
2022/12/11 17:59:28;;;;;;;84.63;34.33;;;0.90;99.90;;;;;;10288133;28;20388;-86
2022/12/11 18:04:30;;;;;;;61.40;23.40;;;0.90;99.90;;;;;;10287476;28;20233;-86
2022/12/11 18:09:32;;;;;;;43.60;16.23;;;1.30;99.90;;;;;;10287052;28;20302;-86
2022/12/11 18:14:35;;;;;;;80.50;37.07;;;1.60;99.90;;;;;;10273208;28;20238;-85
2022/12/11 18:19:40;;;;;;;105.30;40.37;;;1.80;99.90;;;;;;10286614;28;20205;-86
2022/12/11 18:24:47;;;;;;;56.90;27.97;;;1.70;99.90;;;;;;10287807;28;20284;-86
2022/12/11 18:29:50;;;;;;;62.23;27.03;;;1.80;99.90;;;;;;10276881;28;20335;-86
2022/12/11 18:34:53;;;;;;;42.77;23.43;;;1.60;99.90;;;;;;10263996;28;20229;-86
2022/12/11 18:39:55;;;;;;;42.37;20.17;;;2.10;99.90;;;;;;10283184;28;20260;-85
2022/12/11 18:44:58;;;;;;;37.87;20.73;;;2.70;99.90;;;;;;10278786;28;20652;-86
2022/12/11 18:50:01;;;;;;;28.57;19.13;;;2.10;99.90;;;;;;10264758;28;20284;-85
2022/12/11 18:55:09;;;;;;;26.30;16.83;;;2.30;99.90;;;;;;10267538;28;20233;-84
2022/12/11 19:00:13;;;;;;;41.23;18.07;;;2.00;99.90;;;;;;10267866;28;20299;-85
2022/12/11 19:05:17;;;;;;;43.50;20.53;;;1.90;99.90;;;;;;10273259;28;20852;-85
2022/12/11 19:10:19;;;;;;;40.73;19.83;;;2.00;99.90;;;;;;10268455;28;20302;-85
2022/12/11 19:15:21;;;;;;;50.00;25.70;;;1.80;99.90;;;;;;10287476;28;20213;-86
2022/12/11 19:20:25;;;;;;;56.77;24.23;;;1.60;99.90;;;;;;10294872;28;20225;-85
2022/12/11 19:25:48;;;;;;;49.07;26.73;;;2.90;99.90;;;;;;10279807;28;20369;-85
2022/12/11 19:30:50;;;;;;;51.43;25.20;;;2.60;99.90;;;;;;10272550;28;20682;-84
2022/12/11 19:36:02;;;;;;;45.17;23.50;;;;;;;;;;10273140;28;20237;-85
2022/12/11 19:41:07;;;;;;;39.37;17.93;;;0.00;99.90;;;;;;10273621;28;20265;-84
2022/12/11 19:46:11;;;;;;;30.20;15.27;;;0.00;99.90;;;;;;10275076;28;20654;-85
2022/12/11 19:51:18;;;;;;;34.07;16.30;;;0.60;99.90;;;;;;10273146;28;20713;-85
2022/12/11 19:56:20;;;;;;;35.03;19.30;;;1.10;99.90;;;;;;10272203;28;20230;-84
2022/12/11 20:01:59;;;;;;;28.83;11.67;;;1.40;99.90;;;;;;10269293;28;20226;-84
2022/12/11 20:07:05;;;;;;;39.93;20.87;;;2.10;99.90;;;;;;10272993;28;20710;-83
2022/12/11 20:12:12;;;;;;;21.43;13.60;;;1.50;99.90;;;;;;10271490;28;20267;-86
2022/12/11 20:17:14;;;;;;;23.77;13.80;;;1.60;99.90;;;;;;10273351;28;20239;-85
2022/12/11 20:22:17;;;;;;;17.37;12.17;;;1.60;99.90;;;;;;10272363;28;20238;-83
2022/12/11 20:27:19;;;;;;;21.93;14.47;;;1.40;99.90;;;;;;10270381;28;20254;-84
2022/12/11 20:32:22;;;;;;;23.00;12.47;;;1.10;99.90;;;;;;10273783;28;20226;-84
2022/12/11 20:37:25;;;;;;;18.53;10.03;;;1.70;99.90;;;;;;10280078;28;20681;-84
2022/12/11 20:42:28;;;;;;;19.60;12.40;;;1.50;99.90;;;;;;10264945;28;20676;-84
2022/12/11 20:47:31;;;;;;;22.37;12.80;;;;;;;;;;10261008;28;20660;-84
2022/12/11 20:52:34;;;;;;;22.93;13.43;;;2.90;99.90;;;;;;10280407;28;20228;-84
2022/12/11 20:57:36;;;;;;;26.00;16.07;;;2.60;99.90;;;;;;10274914;28;20233;-84
2022/12/11 21:02:48;;;;;;;23.73;12.90;;;0.60;99.90;;;;;;10270564;28;20268;-84
2022/12/11 21:07:53;;;;;;;20.73;10.33;;;0.70;99.90;;;;;;10278844;28;20253;-84
2022/12/11 21:12:55;;;;;;;18.93;10.63;;;2.20;99.90;;;;;;10288789;28;20888;-84
2022/12/11 21:17:58;;;;;;;18.13;11.50;;;3.50;99.90;;;;;;10290200;28;20251;-84
2022/12/11 21:23:01;;;;;;;20.23;11.20;;;2.50;99.90;;;;;;10289742;28;20235;-84
2022/12/11 21:28:04;;;;;;;15.27;10.60;;;1.50;99.90;;;;;;10287335;28;20268;-84
2022/12/11 21:33:07;;;;;;;16.03;9.07;;;2.10;99.90;;;;;;10288468;28;20618;-84
2022/12/11 21:38:09;;;;;;;20.17;11.90;;;3.30;99.90;;;;;;10289553;28;20759;-85
2022/12/11 21:43:12;;;;;;;29.83;16.73;;;3.20;99.90;;;;;;10271770;28;20256;-84
2022/12/11 21:48:15;;;;;;;34.73;21.23;;;3.20;99.90;;;;;;10287752;28;20250;-84
2022/12/11 21:53:17;;;;;;;18.13;10.50;;;2.80;99.90;;;;;;10289800;28;20725;-84
2022/12/11 21:58:20;;;;;;;20.60;12.20;;;3.50;99.90;;;;;;10287521;28;20713;-84
2022/12/11 22:03:22;;;;;;;19.40;10.77;;;3.40;99.90;;;;;;10286907;28;20253;-84
2022/12/11 22:08:25;;;;;;;15.17;10.10;;;2.90;99.90;;;;;;10288549;28;20308;-84
2022/12/11 22:13:27;;;;;;;20.37;12.10;;;3.20;99.90;;;;;;10288250;28;20236;-84
2022/12/11 22:18:30;;;;;;;16.67;10.63;;;2.80;99.90;;;;;;10270918;28;20744;-84
2022/12/11 22:23:33;;;;;;;12.73;9.30;;;3.70;99.90;;;;;;10287502;28;20254;-84
2022/12/11 22:28:35;;;;;;;18.63;11.73;;;3.60;99.90;;;;;;10287375;28;20266;-85
2022/12/11 22:33:39;;;;;;;12.63;8.97;;;2.10;99.90;;;;;;10287766;28;20243;-85
2022/12/11 22:38:41;;;;;;;15.13;9.13;;;2.50;99.90;;;;;;10286873;28;20284;-84
2022/12/11 22:43:45;;;;;;;14.70;11.27;;;2.30;99.90;;;;;;10288035;28;20283;-84
2022/12/11 22:48:48;;;;;;;19.63;12.57;;;2.20;99.90;;;;;;10286083;28;20281;-84
2022/12/11 22:53:51;;;;;;;22.30;14.03;;;2.50;99.90;;;;;;10286173;28;20245;-84
2022/12/11 22:58:53;;;;;;;21.87;14.77;;;2.20;99.90;;;;;;10287126;28;20240;-83
2022/12/11 23:03:55;;;;;;;26.67;16.87;;;-0.80;99.90;;;;;;10287104;28;20268;-82
2022/12/11 23:08:59;;;;;;;25.13;16.60;;;-1.40;99.90;;;;;;10286577;28;20257;-83
2022/12/11 23:14:03;;;;;;;18.30;10.60;;;-1.80;99.90;;;;;;10282027;28;20229;-83
2022/12/11 23:19:06;;;;;;;22.33;11.20;;;-2.10;99.90;;;;;;10269965;28;20266;-83
2022/12/11 23:24:09;;;;;;;17.80;10.00;;;-1.10;99.90;;;;;;10284763;28;20241;-84
2022/12/11 23:29:12;;;;;;;15.17;8.43;;;1.50;99.90;;;;;;10285944;28;20307;-83
2022/12/11 23:34:15;;;;;;;16.27;11.27;;;2.90;99.90;;;;;;10284750;28;20312;-83
2022/12/11 23:39:17;;;;;;;14.87;8.70;;;3.10;99.90;;;;;;10286889;28;20254;-84
2022/12/11 23:44:20;;;;;;;17.60;9.50;;;3.50;99.90;;;;;;10282368;28;20235;-84
2022/12/11 23:49:23;;;;;;;16.20;11.27;;;3.50;99.90;;;;;;10265074;28;20242;-84
2022/12/11 23:54:25;;;;;;;12.20;8.23;;;2.10;99.90;;;;;;10271844;28;20627;-84
2022/12/11 23:59:27;;;;;;;14.43;9.77;;;2.70;99.90;;;;;;10258795;28;20238;-84
